Weather at Central Illinois Regional Airport at Bloomington-Normal

Public forecast

Using degrees Fahrenheit for public forecast. Weather courtesy of forecast.io.

Current aviation weather report (METAR) for Central Illinois Regional Airport at Bloomington-Normal

Report is more than 6 hours old.

2022/11/14 14:56 (retrieved 2 years ago)

KBMI 141456Z 14009KT 10SM CLR 00/M04 A3037 RMK AO2 SLP294 T00001044 50010

Aviation forecast (TAF) for Central Illinois Regional Airport at Bloomington-Normal

Forecast is more than 12 hours old.

2023/02/22 20:42 Ammendment (retrieved 1 year ago)

TAF AMD KBMI 221941Z 2220/2318 03013KT 2SM SHRA VCTS OVC004CB TEMPO 2220/2224 1SM +TSRA OVC002CB FM230000 06009KT 6SM BR VCSH BKN009 FM230600 20010KT P6SM SCT015 FM231200 23016G28KT P6SM SCT015